createdAt,value
2019-01-08T00:00:39.201Z,949.88
2019-01-08T00:01:47.035Z,949.83
2019-01-08T00:02:55.272Z,949.82
2019-01-08T00:04:03.299Z,949.78
2019-01-08T00:05:11.287Z,949.76
2019-01-08T00:06:19.625Z,949.75
2019-01-08T00:07:27.435Z,949.71
2019-01-08T00:08:35.428Z,949.74
2019-01-08T00:09:43.591Z,949.71
2019-01-08T00:10:51.574Z,949.70
2019-01-08T00:11:59.740Z,949.64
2019-01-08T00:13:07.717Z,949.61
2019-01-08T00:14:15.674Z,949.58
2019-01-08T00:15:23.806Z,949.54
2019-01-08T00:16:31.880Z,949.52
2019-01-08T00:17:39.929Z,949.52
2019-01-08T00:18:47.918Z,949.46
2019-01-08T00:19:56.023Z,949.42
2019-01-08T00:21:04.027Z,949.39
2019-01-08T00:22:12.056Z,949.35
2019-01-08T00:23:20.324Z,949.36
2019-01-08T00:24:28.277Z,949.34
2019-01-08T00:25:36.215Z,949.33
2019-01-08T00:26:44.359Z,949.35
2019-01-08T00:27:52.562Z,949.30
2019-01-08T00:29:00.557Z,949.32
2019-01-08T00:30:08.506Z,949.30
2019-01-08T00:31:16.517Z,949.28
2019-01-08T00:32:24.671Z,949.32
2019-01-08T00:33:32.796Z,949.29
2019-01-08T00:34:40.655Z,949.29
2019-01-08T00:35:48.886Z,949.31
2019-01-08T00:36:56.788Z,949.31
2019-01-08T00:38:05.055Z,949.26
2019-01-08T00:39:12.961Z,949.22
2019-01-08T00:40:20.942Z,949.22
2019-01-08T00:41:29.009Z,949.21
2019-01-08T00:42:37.282Z,949.18
2019-01-08T00:43:45.210Z,949.16
2019-01-08T00:44:53.236Z,949.17
2019-01-08T00:46:01.343Z,949.16
2019-01-08T00:47:09.306Z,949.13
2019-01-08T00:48:17.516Z,949.17
2019-01-08T00:49:25.744Z,949.15
2019-01-08T00:50:33.579Z,949.11
2019-01-08T00:51:41.582Z,949.10
2019-01-08T00:52:49.776Z,949.09
2019-01-08T00:53:57.644Z,949.10
2019-01-08T00:55:05.705Z,949.10
2019-01-08T00:56:13.826Z,949.11
2019-01-08T00:57:21.880Z,949.09
2019-01-08T00:58:29.927Z,949.13
2019-01-08T00:59:38.016Z,949.07
2019-01-08T01:00:45.992Z,949.07
2019-01-08T01:01:54.047Z,949.03
2019-01-08T01:03:02.285Z,949.00
2019-01-08T01:04:10.159Z,948.97
2019-01-08T01:05:18.300Z,948.97
2019-01-08T01:06:26.493Z,948.98
2019-01-08T01:07:34.403Z,948.99
2019-01-08T01:08:42.576Z,948.94
2019-01-08T01:09:50.555Z,948.93
2019-01-08T01:10:58.642Z,948.91
2019-01-08T01:12:06.545Z,948.91
2019-01-08T01:13:14.608Z,948.87
2019-01-08T01:14:22.867Z,948.83
2019-01-08T01:15:30.819Z,948.89
2019-01-08T01:16:38.889Z,948.84
2019-01-08T01:17:46.826Z,948.84
2019-01-08T01:18:54.972Z,948.80
2019-01-08T01:20:03.121Z,948.76
2019-01-08T01:21:11.086Z,948.66
2019-01-08T01:22:19.137Z,948.71
2019-01-08T01:23:27.211Z,948.66
2019-01-08T01:24:35.294Z,948.64
2019-01-08T01:25:43.401Z,948.61
2019-01-08T01:26:51.363Z,948.63
2019-01-08T01:27:59.464Z,948.60
2019-01-08T01:29:07.420Z,948.56
2019-01-08T01:30:15.909Z,948.55
2019-01-08T01:31:23.727Z,948.51
2019-01-08T01:32:31.631Z,948.56
2019-01-08T01:33:39.670Z,948.51
2019-01-08T01:34:47.788Z,948.52
2019-01-08T01:35:55.757Z,948.51
2019-01-08T01:37:04.011Z,948.46
2019-01-08T01:38:11.939Z,948.47
2019-01-08T01:39:19.895Z,948.43
2019-01-08T01:40:28.042Z,948.38
2019-01-08T01:41:36.018Z,948.38
2019-01-08T01:42:44.208Z,948.34
2019-01-08T01:43:52.214Z,948.37
2019-01-08T01:45:00.211Z,948.29
2019-01-08T01:46:08.414Z,948.22
2019-01-08T01:47:16.413Z,948.17
2019-01-08T01:48:24.513Z,948.10
2019-01-08T01:49:32.520Z,948.02
2019-01-08T01:50:40.486Z,947.98
2019-01-08T01:51:48.513Z,947.95
2019-01-08T01:52:56.759Z,947.94
2019-01-08T01:54:04.717Z,947.98
2019-01-08T01:55:12.777Z,948.01
2019-01-08T01:56:20.832Z,948.00
2019-01-08T01:57:28.923Z,947.99
2019-01-08T01:58:37.028Z,948.00
2019-01-08T01:59:44.961Z,947.96
2019-01-08T02:00:53.042Z,947.95
2019-01-08T02:02:01.238Z,947.93
2019-01-08T02:03:09.093Z,947.91
2019-01-08T02:04:17.352Z,947.85
2019-01-08T02:05:25.200Z,947.77
2019-01-08T02:06:33.310Z,947.75
2019-01-08T02:07:41.403Z,947.72
2019-01-08T02:08:49.480Z,947.67
2019-01-08T02:09:57.501Z,947.67
2019-01-08T02:11:05.576Z,947.73
2019-01-08T02:12:13.627Z,947.64
2019-01-08T02:13:21.692Z,947.68
2019-01-08T02:14:29.651Z,947.76
2019-01-08T02:15:37.859Z,947.74
2019-01-08T02:16:45.922Z,947.70
2019-01-08T02:17:54.000Z,947.62
2019-01-08T02:19:01.972Z,947.52
2019-01-08T02:20:09.904Z,947.63
2019-01-08T02:21:18.169Z,947.57
2019-01-08T02:22:26.122Z,947.51
2019-01-08T02:23:34.136Z,947.45
2019-01-08T02:24:42.251Z,947.39
2019-01-08T02:25:50.196Z,947.46
2019-01-08T02:26:58.392Z,947.48
2019-01-08T02:28:06.339Z,947.46
2019-01-08T02:29:16.564Z,947.52
2019-01-08T02:30:22.434Z,947.53
2019-01-08T02:31:30.492Z,947.53
2019-01-08T02:32:38.728Z,947.47
2019-01-08T02:33:46.679Z,947.46
2019-01-08T02:34:54.714Z,947.47
2019-01-08T02:36:02.686Z,947.47
2019-01-08T02:37:10.860Z,947.42
2019-01-08T02:38:18.869Z,947.42
2019-01-08T02:39:26.877Z,947.36
2019-01-08T02:40:35.017Z,947.39
2019-01-08T02:41:43.171Z,947.37
2019-01-08T02:42:51.132Z,947.39
2019-01-08T02:43:59.307Z,947.40
2019-01-08T02:45:07.225Z,947.39
2019-01-08T02:46:15.341Z,947.36
2019-01-08T02:47:23.368Z,947.29
2019-01-08T02:48:31.351Z,947.19
2019-01-08T02:49:39.600Z,947.22
2019-01-08T02:50:47.473Z,947.18
2019-01-08T02:51:55.602Z,947.15
2019-01-08T02:53:03.546Z,947.07
2019-01-08T02:54:11.680Z,946.98
2019-01-08T02:55:19.851Z,946.91
2019-01-08T02:56:27.811Z,946.93
2019-01-08T02:57:35.818Z,946.89
2019-01-08T02:58:43.923Z,946.95
2019-01-08T02:59:51.989Z,947.01
2019-01-08T03:01:00.087Z,946.94
2019-01-08T03:02:08.095Z,946.88
2019-01-08T03:03:16.244Z,946.84
2019-01-08T03:04:24.225Z,946.83
2019-01-08T03:05:32.262Z,946.80
2019-01-08T03:06:40.270Z,946.80
2019-01-08T03:07:48.389Z,946.73
2019-01-08T03:08:56.315Z,946.66
2019-01-08T03:10:04.500Z,946.63
2019-01-08T03:11:12.503Z,946.68
2019-01-08T03:12:20.676Z,946.71
2019-01-08T03:13:28.595Z,946.62
2019-01-08T03:14:36.726Z,946.58
2019-01-08T03:15:44.639Z,946.58
2019-01-08T03:16:52.832Z,946.55
2019-01-08T03:18:00.939Z,946.48
2019-01-08T03:19:09.042Z,946.49
2019-01-08T03:20:16.954Z,946.48
2019-01-08T03:21:24.925Z,946.43
2019-01-08T03:22:33.144Z,946.39
2019-01-08T03:23:41.176Z,946.37
2019-01-08T03:24:49.095Z,946.37
2019-01-08T03:25:57.273Z,946.40
2019-01-08T03:27:05.246Z,946.42
2019-01-08T03:28:13.371Z,946.42
2019-01-08T03:29:21.415Z,946.37
2019-01-08T03:30:29.457Z,946.39
2019-01-08T03:31:37.560Z,946.35
2019-01-08T03:32:45.502Z,946.35
2019-01-08T03:33:53.762Z,946.31
2019-01-08T03:35:01.771Z,946.25
2019-01-08T03:36:09.764Z,946.18
2019-01-08T03:37:17.793Z,946.17
2019-01-08T03:38:25.751Z,946.16
2019-01-08T03:39:34.006Z,946.11
2019-01-08T03:40:42.017Z,946.14
2019-01-08T03:41:50.052Z,946.08
2019-01-08T03:42:58.057Z,946.13
2019-01-08T03:44:06.121Z,946.11
2019-01-08T03:45:14.336Z,946.02
2019-01-08T03:46:22.302Z,946.07
2019-01-08T03:47:30.266Z,946.02
2019-01-08T03:48:38.373Z,945.99
2019-01-08T03:49:46.532Z,946.02
2019-01-08T03:50:54.582Z,946.03
2019-01-08T03:52:02.429Z,946.01
2019-01-08T03:53:10.538Z,945.93
2019-01-08T03:54:18.664Z,945.83
2019-01-08T03:55:26.726Z,945.73
2019-01-08T03:56:34.885Z,945.72
2019-01-08T03:57:42.822Z,945.68
2019-01-08T03:58:50.765Z,945.67
2019-01-08T03:59:58.912Z,945.74
2019-01-08T04:01:06.914Z,945.68
2019-01-08T04:02:15.145Z,945.70
2019-01-08T04:03:23.009Z,945.77
2019-01-08T04:04:31.133Z,945.71
2019-01-08T04:05:39.258Z,945.64
2019-01-08T04:06:47.252Z,945.69
2019-01-08T04:07:55.408Z,945.58
2019-01-08T04:09:03.353Z,945.67
2019-01-08T04:10:11.310Z,945.63
2019-01-08T04:11:19.378Z,945.63
2019-01-08T04:12:27.494Z,945.55
2019-01-08T04:13:35.494Z,945.55
2019-01-08T04:14:43.660Z,945.51
2019-01-08T04:15:51.701Z,945.40
2019-01-08T04:16:59.736Z,945.35
2019-01-08T04:18:07.816Z,945.35
2019-01-08T04:19:15.880Z,945.34
2019-01-08T04:20:23.910Z,945.39
2019-01-08T04:21:32.107Z,945.36
2019-01-08T04:22:40.025Z,945.43
2019-01-08T04:23:48.150Z,945.35
2019-01-08T04:24:56.105Z,945.46
2019-01-08T04:26:04.218Z,945.43
2019-01-08T04:27:12.170Z,945.42
2019-01-08T04:28:20.259Z,945.44
2019-01-08T04:29:28.497Z,945.37
2019-01-08T04:30:36.357Z,945.37
2019-01-08T04:31:44.399Z,945.31
2019-01-08T04:32:52.532Z,945.32
2019-01-08T04:34:00.497Z,945.30
2019-01-08T04:35:08.766Z,945.33
2019-01-08T04:36:16.664Z,945.26
2019-01-08T04:37:24.868Z,945.24
2019-01-08T04:38:32.712Z,945.28
2019-01-08T04:39:40.861Z,945.14
2019-01-08T04:40:49.289Z,945.10
2019-01-08T04:41:56.882Z,945.10
2019-01-08T04:43:04.999Z,945.02
2019-01-08T04:44:13.101Z,945.04
2019-01-08T04:45:21.093Z,945.03
2019-01-08T04:46:29.317Z,944.97
2019-01-08T04:47:37.295Z,944.96
2019-01-08T04:48:45.359Z,944.95
2019-01-08T04:49:53.284Z,944.95
2019-01-08T04:51:01.404Z,944.88
2019-01-08T04:52:09.600Z,944.84
2019-01-08T04:53:17.669Z,944.89
2019-01-08T04:54:25.511Z,944.78
2019-01-08T04:55:33.652Z,944.75
2019-01-08T04:56:41.654Z,944.70
2019-01-08T04:57:49.844Z,944.65
2019-01-08T04:58:57.766Z,944.68
2019-01-08T05:00:05.910Z,944.63
2019-01-08T05:01:13.871Z,944.62
2019-01-08T05:02:21.907Z,944.65
2019-01-08T05:03:29.946Z,944.64
2019-01-08T05:04:38.010Z,944.63
2019-01-08T05:05:46.080Z,944.62
2019-01-08T05:06:54.120Z,944.62
2019-01-08T05:08:02.227Z,944.68
2019-01-08T05:09:10.214Z,944.64
2019-01-08T05:10:18.278Z,944.56
2019-01-08T05:11:26.336Z,944.59
2019-01-08T05:12:34.485Z,944.40
2019-01-08T05:13:42.460Z,944.44
2019-01-08T05:14:50.494Z,944.48
2019-01-08T05:15:58.573Z,944.41
2019-01-08T05:17:06.656Z,944.39
2019-01-08T05:18:14.763Z,944.43
2019-01-08T05:19:22.722Z,944.37
2019-01-08T05:20:30.773Z,944.40
2019-01-08T05:21:38.834Z,944.35
2019-01-08T05:22:47.157Z,944.43
2019-01-08T05:23:55.052Z,944.38
2019-01-08T05:25:03.009Z,944.33
2019-01-08T05:26:11.050Z,944.37
2019-01-08T05:27:19.121Z,944.31
2019-01-08T05:28:27.175Z,944.37
2019-01-08T05:29:35.324Z,944.42
2019-01-08T05:30:43.433Z,944.32
2019-01-08T05:31:51.397Z,944.35
2019-01-08T05:32:59.412Z,944.24
2019-01-08T05:34:07.806Z,944.17
2019-01-08T05:35:16.410Z,944.14
2019-01-08T05:36:23.565Z,944.09
2019-01-08T05:37:31.724Z,944.05
2019-01-08T05:38:39.681Z,944.03
2019-01-08T05:39:47.763Z,943.96
2019-01-08T05:40:55.897Z,943.88
2019-01-08T05:42:03.839Z,943.87
2019-01-08T05:43:11.910Z,943.80
2019-01-08T05:44:19.966Z,943.88
2019-01-08T05:45:28.015Z,943.85
2019-01-08T05:46:36.178Z,943.78
2019-01-08T05:47:44.178Z,943.88
2019-01-08T05:48:52.174Z,943.88
2019-01-08T05:50:00.285Z,943.90
2019-01-08T05:51:08.303Z,943.91
2019-01-08T05:52:16.467Z,943.84
2019-01-08T05:53:24.497Z,943.84
2019-01-08T05:54:32.514Z,943.86
2019-01-08T05:55:40.494Z,943.81
2019-01-08T05:56:48.565Z,943.81
2019-01-08T05:57:56.753Z,943.76
2019-01-08T05:59:04.719Z,943.79
2019-01-08T06:00:16.440Z,943.69
2019-01-08T06:01:20.802Z,943.66
2019-01-08T06:02:29.096Z,943.66
2019-01-08T06:03:37.002Z,943.63
2019-01-08T06:04:45.131Z,943.66
2019-01-08T06:05:53.190Z,943.68
2019-01-08T06:07:01.050Z,943.68
2019-01-08T06:08:09.436Z,943.71
2019-01-08T06:09:17.268Z,943.67
2019-01-08T06:10:25.237Z,943.59
2019-01-08T06:11:33.937Z,943.65
2019-01-08T06:12:41.529Z,943.63
2019-01-08T06:13:50.669Z,943.60
2019-01-08T06:14:57.595Z,943.65
2019-01-08T06:16:05.799Z,943.62
2019-01-08T06:17:13.586Z,943.66
2019-01-08T06:18:21.680Z,943.63
2019-01-08T06:19:30.153Z,943.62
2019-01-08T06:20:44.249Z,943.62
2019-01-08T06:21:45.918Z,943.61
2019-01-08T06:22:54.042Z,943.57
2019-01-08T06:24:01.980Z,943.63
2019-01-08T06:25:10.163Z,943.58
2019-01-08T06:26:18.079Z,943.54
2019-01-08T06:27:26.205Z,943.56
2019-01-08T06:28:34.256Z,943.49
2019-01-08T06:29:42.321Z,943.50
2019-01-08T06:30:50.334Z,943.50
2019-01-08T06:31:58.298Z,943.50
2019-01-08T06:33:06.458Z,943.49
2019-01-08T06:34:14.451Z,943.49
2019-01-08T06:35:22.570Z,943.46
2019-01-08T06:36:30.672Z,943.49
2019-01-08T06:37:38.618Z,943.50
2019-01-08T06:38:46.736Z,943.53
2019-01-08T06:39:54.784Z,943.54
2019-01-08T06:41:02.838Z,943.45
2019-01-08T06:42:10.996Z,943.53
2019-01-08T06:43:18.978Z,943.51
2019-01-08T06:44:26.957Z,943.46
2019-01-08T06:45:35.068Z,943.52
2019-01-08T06:46:43.424Z,943.51
2019-01-08T06:47:51.164Z,943.50
2019-01-08T06:48:59.269Z,943.52
2019-01-08T06:50:07.209Z,943.48
2019-01-08T06:51:15.329Z,943.54
2019-01-08T06:52:23.477Z,943.48
2019-01-08T06:53:31.483Z,943.51
2019-01-08T06:54:39.510Z,943.50
2019-01-08T06:55:47.567Z,943.60
2019-01-08T06:56:55.537Z,943.54
2019-01-08T06:58:03.742Z,943.66
2019-01-08T06:59:11.762Z,943.64
2019-01-08T07:00:19.798Z,943.61
2019-01-08T07:01:27.855Z,943.59
2019-01-08T07:02:35.978Z,943.67
2019-01-08T07:03:43.911Z,943.71
2019-01-08T07:04:52.022Z,943.63
2019-01-08T07:06:00.096Z,943.66
2019-01-08T07:07:08.130Z,943.62
2019-01-08T07:08:16.261Z,943.67
2019-01-08T07:09:24.272Z,943.56
2019-01-08T07:10:32.202Z,943.63
2019-01-08T07:11:40.351Z,943.64
2019-01-08T07:12:48.394Z,943.65
2019-01-08T07:13:56.477Z,943.65
2019-01-08T07:15:04.446Z,943.64
2019-01-08T07:16:12.626Z,943.62
2019-01-08T07:17:20.646Z,943.54
2019-01-08T07:18:28.614Z,943.61
2019-01-08T07:19:36.826Z,943.65
2019-01-08T07:20:44.748Z,943.57
2019-01-08T07:21:52.907Z,943.61
2019-01-08T07:23:00.986Z,943.56
2019-01-08T07:24:08.939Z,943.59
2019-01-08T07:25:17.116Z,943.56
2019-01-08T07:26:25.075Z,943.62
2019-01-08T07:27:33.046Z,943.50
2019-01-08T07:28:41.210Z,943.57
2019-01-08T07:29:49.164Z,943.59
2019-01-08T07:30:57.398Z,943.56
2019-01-08T07:32:05.425Z,943.52
2019-01-08T07:33:13.455Z,943.55
2019-01-08T07:34:21.494Z,943.51
2019-01-08T07:35:29.551Z,943.42
2019-01-08T07:36:37.663Z,943.45
2019-01-08T07:37:45.789Z,943.46
2019-01-08T07:38:53.742Z,943.47
2019-01-08T07:40:01.740Z,943.43
2019-01-08T07:41:09.754Z,943.48
2019-01-08T07:42:18.216Z,943.51
2019-01-08T07:43:25.981Z,943.52
2019-01-08T07:44:33.909Z,943.58
2019-01-08T07:45:41.976Z,943.57
2019-01-08T07:46:50.079Z,943.55
2019-01-08T07:47:58.194Z,943.55
2019-01-08T07:49:06.208Z,943.59
2019-01-08T07:50:14.183Z,943.57
2019-01-08T07:51:22.315Z,943.55
2019-01-08T07:52:30.472Z,943.57
2019-01-08T07:53:38.540Z,943.59
2019-01-08T07:54:46.438Z,943.61
2019-01-08T07:55:54.512Z,943.59
2019-01-08T07:57:02.617Z,943.64
2019-01-08T07:58:10.792Z,943.60
2019-01-08T07:59:18.709Z,943.62
2019-01-08T08:00:26.768Z,943.67
2019-01-08T08:01:34.809Z,943.59
2019-01-08T08:02:42.798Z,943.61
2019-01-08T08:03:51.008Z,943.58
2019-01-08T08:04:58.941Z,943.59
2019-01-08T08:06:06.966Z,943.59
2019-01-08T08:07:15.107Z,943.54
2019-01-08T08:08:23.090Z,943.57
2019-01-08T08:09:31.294Z,943.53
2019-01-08T08:10:39.226Z,943.60
2019-01-08T08:11:47.390Z,943.53
2019-01-08T08:12:55.311Z,943.56
2019-01-08T08:14:03.506Z,943.49
2019-01-08T08:15:11.550Z,943.49
2019-01-08T08:16:19.514Z,943.50
2019-01-08T08:17:27.537Z,943.50
2019-01-08T08:18:35.706Z,943.53
2019-01-08T08:19:43.646Z,943.54
2019-01-08T08:20:51.891Z,943.56
2019-01-08T08:21:59.849Z,943.59
2019-01-08T08:23:07.891Z,943.54
2019-01-08T08:24:15.871Z,943.54
2019-01-08T08:25:24.122Z,943.51
2019-01-08T08:26:32.133Z,943.54
2019-01-08T08:27:40.034Z,943.54
2019-01-08T08:28:48.107Z,943.60
2019-01-08T08:29:56.209Z,943.61
2019-01-08T08:31:04.310Z,943.60
2019-01-08T08:32:12.354Z,943.60
2019-01-08T08:33:20.438Z,943.53
2019-01-08T08:34:28.459Z,943.54
2019-01-08T08:35:36.550Z,943.53
2019-01-08T08:36:44.609Z,943.55
2019-01-08T08:37:52.723Z,943.61
2019-01-08T08:39:00.640Z,943.57
2019-01-08T08:40:08.748Z,943.55
2019-01-08T08:41:16.901Z,943.53
2019-01-08T08:42:24.788Z,943.53
2019-01-08T08:43:32.955Z,943.52
2019-01-08T08:44:41.019Z,943.55
2019-01-08T08:45:48.964Z,943.52
2019-01-08T08:46:57.114Z,943.49
2019-01-08T08:48:05.164Z,943.49
2019-01-08T08:49:13.256Z,943.42
2019-01-08T08:50:21.269Z,943.52
2019-01-08T08:51:29.317Z,943.56
2019-01-08T08:52:37.458Z,943.51
2019-01-08T08:53:52.282Z,943.53
2019-01-08T08:54:53.476Z,943.49
2019-01-08T08:56:01.642Z,943.55
2019-01-08T08:57:09.673Z,943.51
2019-01-08T08:58:17.737Z,943.58
2019-01-08T08:59:25.659Z,943.56
2019-01-08T09:00:33.823Z,943.55
2019-01-08T09:01:41.862Z,943.58
2019-01-08T09:02:49.814Z,943.50
2019-01-08T09:03:58.078Z,943.51
2019-01-08T09:05:06.036Z,943.48
2019-01-08T09:06:14.085Z,943.50
2019-01-08T09:07:22.135Z,943.53
2019-01-08T09:08:30.115Z,943.51
2019-01-08T09:09:38.319Z,943.48
2019-01-08T09:10:46.220Z,943.55
2019-01-08T09:11:54.381Z,943.48
2019-01-08T09:13:02.489Z,943.51
2019-01-08T09:14:10.365Z,943.52
2019-01-08T09:15:18.544Z,943.48
2019-01-08T09:16:26.582Z,943.52
2019-01-08T09:17:34.653Z,943.51
2019-01-08T09:18:42.646Z,943.49
2019-01-08T09:19:50.638Z,943.44
2019-01-08T09:20:58.933Z,943.45
2019-01-08T09:22:06.866Z,943.50
2019-01-08T09:23:14.935Z,943.49
2019-01-08T09:24:22.938Z,943.45
2019-01-08T09:25:31.014Z,943.44
2019-01-08T09:26:39.028Z,943.44
2019-01-08T09:27:47.275Z,943.45
2019-01-08T09:28:55.259Z,943.44
2019-01-08T09:30:03.310Z,943.42
2019-01-08T09:31:15.471Z,943.47
2019-01-08T09:32:19.351Z,943.43
2019-01-08T09:33:27.465Z,943.40
2019-01-08T09:34:35.595Z,943.42
2019-01-08T09:35:43.606Z,943.41
2019-01-08T09:36:51.727Z,943.38
2019-01-08T09:37:59.640Z,943.34
2019-01-08T09:39:07.723Z,943.29
2019-01-08T09:40:15.720Z,943.25
2019-01-08T09:41:23.811Z,943.30
2019-01-08T09:42:32.028Z,943.28
2019-01-08T09:43:39.896Z,943.29
2019-01-08T09:44:48.051Z,943.25
2019-01-08T09:45:55.991Z,943.21
2019-01-08T09:47:04.165Z,943.20
2019-01-08T09:48:12.321Z,943.21
2019-01-08T09:49:20.226Z,943.15
2019-01-08T09:50:28.340Z,943.18
2019-01-08T09:51:36.276Z,943.18
2019-01-08T09:52:44.507Z,943.16
2019-01-08T09:53:52.542Z,943.20
2019-01-08T09:55:00.598Z,943.15
2019-01-08T09:56:08.592Z,943.20
2019-01-08T09:57:16.662Z,943.19
2019-01-08T09:58:24.862Z,943.09
2019-01-08T09:59:32.819Z,943.15
2019-01-08T10:00:40.727Z,943.16
2019-01-08T10:01:48.815Z,943.16
2019-01-08T10:02:57.073Z,943.14
2019-01-08T10:04:05.021Z,943.13
2019-01-08T10:05:12.969Z,943.13
2019-01-08T10:06:21.065Z,943.14
2019-01-08T10:07:29.097Z,943.14
2019-01-08T10:08:37.233Z,943.09
2019-01-08T10:09:45.270Z,943.13
2019-01-08T10:10:53.340Z,943.14
2019-01-08T10:12:01.472Z,943.08
2019-01-08T10:13:09.601Z,943.05
2019-01-08T10:14:17.622Z,943.04
2019-01-08T10:15:25.717Z,943.11
2019-01-08T10:16:33.622Z,943.10
2019-01-08T10:17:41.620Z,943.11
2019-01-08T10:18:49.756Z,943.11
2019-01-08T10:19:57.861Z,943.08
2019-01-08T10:21:05.889Z,943.09
2019-01-08T10:22:13.851Z,943.07
2019-01-08T10:23:21.906Z,943.07
2019-01-08T10:24:30.157Z,943.05
2019-01-08T10:25:38.099Z,943.11
2019-01-08T10:26:46.137Z,943.13
2019-01-08T10:27:54.199Z,943.08
2019-01-08T10:29:02.239Z,943.11
2019-01-08T10:30:10.341Z,943.11
2019-01-08T10:31:18.361Z,943.01
2019-01-08T10:32:26.489Z,943.05
2019-01-08T10:33:34.467Z,943.02
2019-01-08T10:34:42.609Z,942.98
2019-01-08T10:35:50.794Z,943.01
2019-01-08T10:36:58.600Z,943.01
2019-01-08T10:38:06.775Z,942.96
2019-01-08T10:39:14.780Z,942.94
2019-01-08T10:40:22.917Z,942.97
2019-01-08T10:41:30.999Z,942.98
2019-01-08T10:42:39.011Z,942.97
2019-01-08T10:43:47.043Z,943.00
2019-01-08T10:44:55.107Z,943.02
2019-01-08T10:46:03.233Z,942.97
2019-01-08T10:47:11.272Z,943.00
2019-01-08T10:48:19.265Z,942.96
2019-01-08T10:49:27.296Z,942.92
2019-01-08T10:50:35.391Z,942.97
2019-01-08T10:51:43.475Z,942.92
2019-01-08T10:52:51.616Z,942.95
2019-01-08T10:53:59.613Z,943.01
2019-01-08T10:55:07.591Z,942.96
2019-01-08T10:56:15.598Z,942.95
2019-01-08T10:57:23.790Z,942.96
2019-01-08T10:58:31.799Z,942.89
2019-01-08T10:59:39.894Z,942.94
2019-01-08T11:00:47.972Z,943.00
2019-01-08T11:01:56.096Z,942.92
2019-01-08T11:03:04.086Z,942.94
2019-01-08T11:04:12.103Z,942.88
2019-01-08T11:05:20.069Z,942.86
2019-01-08T11:06:28.218Z,942.82
2019-01-08T11:07:36.356Z,942.86
2019-01-08T11:08:44.230Z,942.80
2019-01-08T11:09:52.297Z,942.80
2019-01-08T11:11:00.528Z,942.76
2019-01-08T11:12:08.474Z,942.79
2019-01-08T11:13:16.662Z,942.73
2019-01-08T11:14:24.656Z,942.74
2019-01-08T11:15:32.720Z,942.70
2019-01-08T11:16:40.649Z,942.69
2019-01-08T11:17:48.901Z,942.60
2019-01-08T11:18:56.959Z,942.57
2019-01-08T11:20:04.889Z,942.60
2019-01-08T11:21:12.897Z,942.60
2019-01-08T11:22:20.926Z,942.62
2019-01-08T11:23:29.135Z,942.65
2019-01-08T11:24:37.276Z,942.70
2019-01-08T11:25:45.199Z,942.64
2019-01-08T11:26:53.256Z,942.60
2019-01-08T11:28:01.247Z,942.58
2019-01-08T11:29:09.415Z,942.55
2019-01-08T11:30:17.588Z,942.54
2019-01-08T11:31:25.531Z,942.57
2019-01-08T11:32:33.644Z,942.50
2019-01-08T11:33:41.530Z,942.50
2019-01-08T11:34:49.740Z,942.49
2019-01-08T11:35:57.870Z,942.52
2019-01-08T11:37:05.765Z,942.48
2019-01-08T11:38:13.872Z,942.46
2019-01-08T11:39:21.841Z,942.39
2019-01-08T11:40:30.031Z,942.44
2019-01-08T11:41:38.060Z,942.44
2019-01-08T11:42:46.015Z,942.38
2019-01-08T11:43:54.205Z,942.42
2019-01-08T11:45:02.140Z,942.44
2019-01-08T11:46:10.299Z,942.50
2019-01-08T11:47:18.400Z,942.48
2019-01-08T11:48:26.524Z,942.50
2019-01-08T11:49:35.389Z,942.40
2019-01-08T11:50:42.483Z,942.46
2019-01-08T11:51:50.558Z,942.40
2019-01-08T11:52:58.712Z,942.50
2019-01-08T11:54:06.681Z,942.49
2019-01-08T11:55:14.759Z,942.51
2019-01-08T11:56:22.826Z,942.42
2019-01-08T11:57:30.928Z,942.43
2019-01-08T11:58:38.957Z,942.36
2019-01-08T11:59:48.213Z,942.32
2019-01-08T12:00:54.957Z,942.29
2019-01-08T12:02:03.126Z,942.27
2019-01-08T12:03:11.150Z,942.28
2019-01-08T12:04:19.222Z,942.23
2019-01-08T12:05:27.205Z,942.23
2019-01-08T12:06:35.364Z,942.14
2019-01-08T12:07:43.532Z,942.09
2019-01-08T12:08:51.427Z,942.12
2019-01-08T12:09:59.452Z,942.08
2019-01-08T12:11:07.600Z,942.09
2019-01-08T12:12:15.657Z,942.08
2019-01-08T12:13:23.868Z,942.04
2019-01-08T12:14:31.719Z,942.02
2019-01-08T12:15:39.857Z,942.06
2019-01-08T12:16:47.802Z,941.97
2019-01-08T12:17:56.035Z,941.95
2019-01-08T12:19:04.025Z,941.95
2019-01-08T12:20:12.081Z,941.96
2019-01-08T12:21:20.080Z,941.94
2019-01-08T12:22:28.158Z,941.89
2019-01-08T12:23:36.243Z,941.88
2019-01-08T12:24:44.449Z,941.94
2019-01-08T12:25:52.392Z,941.92
2019-01-08T12:27:00.424Z,941.89
2019-01-08T12:28:08.542Z,941.87
2019-01-08T12:29:16.463Z,941.86
2019-01-08T12:30:24.727Z,941.83
2019-01-08T12:31:32.598Z,941.78
2019-01-08T12:32:40.870Z,941.77
2019-01-08T12:33:48.706Z,941.81
2019-01-08T12:34:56.895Z,941.84
2019-01-08T12:36:04.984Z,941.83
2019-01-08T12:37:12.995Z,941.82
2019-01-08T12:38:21.013Z,941.79
2019-01-08T12:39:29.018Z,941.80
2019-01-08T12:40:37.180Z,941.77
2019-01-08T12:41:45.224Z,941.77
2019-01-08T12:42:53.323Z,941.75
2019-01-08T12:44:01.286Z,941.77
2019-01-08T12:45:09.394Z,941.84
2019-01-08T12:46:17.467Z,941.84
2019-01-08T12:47:25.527Z,941.84
2019-01-08T12:48:33.490Z,941.82
2019-01-08T12:49:41.668Z,941.83
2019-01-08T12:50:49.649Z,941.85
2019-01-08T12:51:57.766Z,941.89
2019-01-08T12:53:05.884Z,941.83
2019-01-08T12:54:13.877Z,941.88
2019-01-08T12:55:21.849Z,941.88
2019-01-08T12:56:29.974Z,941.84
2019-01-08T12:57:38.141Z,941.83
2019-01-08T12:58:46.027Z,941.83
2019-01-08T12:59:54.089Z,941.83
2019-01-08T13:01:02.234Z,941.80
2019-01-08T13:02:14.681Z,941.81
2019-01-08T13:03:18.463Z,941.78
2019-01-08T13:04:26.362Z,941.75
2019-01-08T13:05:34.381Z,941.76
2019-01-08T13:06:43.625Z,941.76
2019-01-08T13:07:50.662Z,941.74
2019-01-08T13:08:58.662Z,941.84
2019-01-08T13:10:06.618Z,941.85
2019-01-08T13:11:14.775Z,941.80
2019-01-08T13:12:22.829Z,941.75
2019-01-08T13:13:30.795Z,941.75
2019-01-08T13:14:38.986Z,941.79
2019-01-08T13:15:46.928Z,941.79
2019-01-08T13:16:55.003Z,941.68
2019-01-08T13:18:03.248Z,941.75
2019-01-08T13:19:11.195Z,941.73
2019-01-08T13:20:19.246Z,941.69
2019-01-08T13:21:27.338Z,941.78
2019-01-08T13:22:35.380Z,941.79
2019-01-08T13:23:43.477Z,941.76
2019-01-08T13:24:51.424Z,941.72
2019-01-08T13:25:59.569Z,941.69
2019-01-08T13:27:07.536Z,941.67
2019-01-08T13:28:15.729Z,941.63
2019-01-08T13:29:23.798Z,941.68
2019-01-08T13:30:31.709Z,941.68
2019-01-08T13:31:39.844Z,941.70
2019-01-08T13:32:48.067Z,941.65
2019-01-08T13:33:55.956Z,941.63
2019-01-08T13:35:04.122Z,941.60
2019-01-08T13:36:12.133Z,941.62
2019-01-08T13:37:20.048Z,941.62
2019-01-08T13:38:28.205Z,941.65
2019-01-08T13:39:36.302Z,941.66
2019-01-08T13:40:44.369Z,941.60
2019-01-08T13:41:52.355Z,941.66
2019-01-08T13:43:00.454Z,941.63
2019-01-08T13:44:08.453Z,941.65
2019-01-08T13:45:16.581Z,941.61
2019-01-08T13:46:24.683Z,941.60
2019-01-08T13:47:32.726Z,941.61
2019-01-08T13:48:40.825Z,941.55
2019-01-08T13:49:48.722Z,941.56
2019-01-08T13:50:56.939Z,941.59
2019-01-08T13:52:05.037Z,941.56
2019-01-08T13:53:12.876Z,941.56
2019-01-08T13:54:20.924Z,941.56
2019-01-08T13:55:29.124Z,941.55
2019-01-08T13:56:37.158Z,941.54
2019-01-08T13:57:45.318Z,941.46
2019-01-08T13:58:53.199Z,941.46
2019-01-08T14:00:01.370Z,941.38
2019-01-08T14:01:09.300Z,941.47
2019-01-08T14:02:17.451Z,941.46
2019-01-08T14:03:25.643Z,941.42
2019-01-08T14:04:33.702Z,941.31
2019-01-08T14:05:41.534Z,941.38
2019-01-08T14:06:49.706Z,941.26
2019-01-08T14:07:57.831Z,941.16
2019-01-08T14:09:05.822Z,941.08